sensor_id;sensor_type;location;lat;lon;timestamp;pressure;altitude;pressure_sealevel;temperature;humidity
71059;BME280;70265;47.576;19.270;2023-12-22T00:00:47;96425.31;;;4.16;100.00
71059;BME280;70265;47.576;19.270;2023-12-22T00:01:51;96421.75;;;4.17;100.00
71059;BME280;70265;47.576;19.270;2023-12-22T00:02:52;96429.53;;;4.17;100.00
71059;BME280;70265;47.576;19.270;2023-12-22T00:03:56;96426.94;;;4.17;100.00
71059;BME280;70265;47.576;19.270;2023-12-22T00:04:59;96436.97;;;4.20;100.00
71059;BME280;70265;47.576;19.270;2023-12-22T00:06:04;96424.56;;;4.30;100.00
71059;BME280;70265;47.576;19.270;2023-12-22T00:07:05;96424.88;;;4.35;100.00
71059;BME280;70265;47.576;19.270;2023-12-22T00:08:09;96425.72;;;4.50;100.00
71059;BME280;70265;47.576;19.270;2023-12-22T00:09:10;96430.22;;;4.56;100.00
71059;BME280;70265;47.576;19.270;2023-12-22T00:10:14;96443.03;;;4.58;100.00
71059;BME280;70265;47.576;19.270;2023-12-22T00:11:14;96447.97;;;4.68;100.00
71059;BME280;70265;47.576;19.270;2023-12-22T00:12:18;96446.66;;;4.72;100.00
71059;BME280;70265;47.576;19.270;2023-12-22T00:13:22;96442.38;;;4.79;100.00
71059;BME280;70265;47.576;19.270;2023-12-22T00:14:25;96446.94;;;4.91;100.00
71059;BME280;70265;47.576;19.270;2023-12-22T00:15:27;96442.56;;;4.92;100.00
71059;BME280;70265;47.576;19.270;2023-12-22T00:16:31;96439.00;;;4.93;100.00
71059;BME280;70265;47.576;19.270;2023-12-22T00:17:32;96445.88;;;4.86;100.00
71059;BME280;70265;47.576;19.270;2023-12-22T00:18:33;96451.16;;;4.92;100.00
71059;BME280;70265;47.576;19.270;2023-12-22T00:19:36;96451.88;;;5.01;100.00
71059;BME280;70265;47.576;19.270;2023-12-22T00:20:40;96453.59;;;5.08;100.00
71059;BME280;70265;47.576;19.270;2023-12-22T00:21:41;96458.00;;;5.08;100.00
71059;BME280;70265;47.576;19.270;2023-12-22T00:22:44;96453.44;;;5.10;100.00
71059;BME280;70265;47.576;19.270;2023-12-22T00:23:45;96456.59;;;5.20;100.00
71059;BME280;70265;47.576;19.270;2023-12-22T00:24:46;96455.06;;;5.26;100.00
71059;BME280;70265;47.576;19.270;2023-12-22T00:25:52;96461.13;;;5.18;100.00
71059;BME280;70265;47.576;19.270;2023-12-22T00:26:53;96447.78;;;5.21;100.00
71059;BME280;70265;47.576;19.270;2023-12-22T00:27:57;96442.13;;;5.18;100.00
71059;BME280;70265;47.576;19.270;2023-12-22T00:28:57;96445.91;;;5.15;100.00
71059;BME280;70265;47.576;19.270;2023-12-22T00:30:01;96448.16;;;5.18;100.00
71059;BME280;70265;47.576;19.270;2023-12-22T00:31:03;96456.66;;;5.12;100.00
71059;BME280;70265;47.576;19.270;2023-12-22T00:32:05;96466.25;;;5.11;100.00
71059;BME280;70265;47.576;19.270;2023-12-22T00:33:10;96464.16;;;5.07;100.00
71059;BME280;70265;47.576;19.270;2023-12-22T00:34:11;96455.75;;;5.05;100.00
71059;BME280;70265;47.576;19.270;2023-12-22T00:35:14;96448.03;;;4.97;100.00
71059;BME280;70265;47.576;19.270;2023-12-22T00:36:20;96448.22;;;4.95;100.00
71059;BME280;70265;47.576;19.270;2023-12-22T00:37:24;96459.78;;;4.93;100.00
71059;BME280;70265;47.576;19.270;2023-12-22T00:38:28;96461.25;;;4.87;100.00
71059;BME280;70265;47.576;19.270;2023-12-22T00:39:29;96459.69;;;4.86;100.00
71059;BME280;70265;47.576;19.270;2023-12-22T00:40:32;96463.25;;;4.85;100.00
71059;BME280;70265;47.576;19.270;2023-12-22T00:41:33;96463.34;;;4.92;100.00
71059;BME280;70265;47.576;19.270;2023-12-22T00:42:37;96469.72;;;4.89;100.00
71059;BME280;70265;47.576;19.270;2023-12-22T00:43:38;96489.94;;;4.94;100.00
71059;BME280;70265;47.576;19.270;2023-12-22T00:44:42;96490.94;;;4.93;100.00
71059;BME280;70265;47.576;19.270;2023-12-22T00:45:43;96480.56;;;4.93;100.00
71059;BME280;70265;47.576;19.270;2023-12-22T00:46:46;96490.50;;;5.04;100.00
71059;BME280;70265;47.576;19.270;2023-12-22T00:47:47;96495.88;;;5.02;100.00
71059;BME280;70265;47.576;19.270;2023-12-22T00:48:48;96497.25;;;5.13;100.00
71059;BME280;70265;47.576;19.270;2023-12-22T00:49:52;96496.88;;;5.01;100.00
71059;BME280;70265;47.576;19.270;2023-12-22T00:50:53;96497.38;;;4.97;100.00
71059;BME280;70265;47.576;19.270;2023-12-22T00:51:56;96502.75;;;4.95;100.00
71059;BME280;70265;47.576;19.270;2023-12-22T00:53:00;96499.66;;;5.00;100.00
71059;BME280;70265;47.576;19.270;2023-12-22T00:54:02;96495.13;;;4.94;100.00
71059;BME280;70265;47.576;19.270;2023-12-22T00:55:06;96497.38;;;4.97;100.00
71059;BME280;70265;47.576;19.270;2023-12-22T00:56:08;96485.75;;;4.93;100.00
71059;BME280;70265;47.576;19.270;2023-12-22T00:57:13;96495.50;;;4.91;100.00
71059;BME280;70265;47.576;19.270;2023-12-22T00:58:14;96503.00;;;4.86;100.00
71059;BME280;70265;47.576;19.270;2023-12-22T00:59:18;96500.88;;;4.89;100.00
71059;BME280;70265;47.576;19.270;2023-12-22T01:00:22;96511.38;;;4.96;100.00
71059;BME280;70265;47.576;19.270;2023-12-22T01:01:26;96506.69;;;4.91;100.00
71059;BME280;70265;47.576;19.270;2023-12-22T01:02:27;96514.59;;;4.98;100.00
71059;BME280;70265;47.576;19.270;2023-12-22T01:03:30;96516.03;;;5.00;100.00
71059;BME280;70265;47.576;19.270;2023-12-22T01:04:31;96513.78;;;4.97;100.00
71059;BME280;70265;47.576;19.270;2023-12-22T01:05:35;96509.47;;;4.90;100.00
71059;BME280;70265;47.576;19.270;2023-12-22T01:06:37;96491.47;;;4.88;100.00
71059;BME280;70265;47.576;19.270;2023-12-22T01:07:43;96459.94;;;4.91;100.00
71059;BME280;70265;47.576;19.270;2023-12-22T01:08:44;96461.47;;;4.86;100.00
71059;BME280;70265;47.576;19.270;2023-12-22T01:09:50;96456.88;;;4.88;100.00
71059;BME280;70265;47.576;19.270;2023-12-22T01:10:51;96458.75;;;4.79;100.00
71059;BME280;70265;47.576;19.270;2023-12-22T01:11:54;96463.66;;;4.74;100.00
71059;BME280;70265;47.576;19.270;2023-12-22T01:12:55;96461.41;;;4.71;100.00
71059;BME280;70265;47.576;19.270;2023-12-22T01:13:56;96460.25;;;4.74;100.00
71059;BME280;70265;47.576;19.270;2023-12-22T01:15:00;96465.09;;;4.77;100.00
71059;BME280;70265;47.576;19.270;2023-12-22T01:16:01;96480.56;;;4.70;100.00
71059;BME280;70265;47.576;19.270;2023-12-22T01:17:05;96495.69;;;4.67;100.00
71059;BME280;70265;47.576;19.270;2023-12-22T01:18:06;96488.06;;;4.65;100.00
71059;BME280;70265;47.576;19.270;2023-12-22T01:19:09;96492.63;;;4.63;100.00
71059;BME280;70265;47.576;19.270;2023-12-22T01:20:11;96486.97;;;4.59;100.00
71059;BME280;70265;47.576;19.270;2023-12-22T01:21:15;96504.50;;;4.57;100.00
71059;BME280;70265;47.576;19.270;2023-12-22T01:22:16;96504.50;;;4.57;100.00
71059;BME280;70265;47.576;19.270;2023-12-22T01:23:23;96489.56;;;4.59;100.00
71059;BME280;70265;47.576;19.270;2023-12-22T01:24:25;96487.63;;;4.61;100.00
71059;BME280;70265;47.576;19.270;2023-12-22T01:25:29;96494.25;;;4.64;100.00
71059;BME280;70265;47.576;19.270;2023-12-22T01:26:31;96503.66;;;4.65;100.00
71059;BME280;70265;47.576;19.270;2023-12-22T01:27:34;96524.78;;;4.62;100.00
71059;BME280;70265;47.576;19.270;2023-12-22T01:28:36;96531.41;;;4.65;100.00
71059;BME280;70265;47.576;19.270;2023-12-22T01:29:39;96533.81;;;4.66;100.00
71059;BME280;70265;47.576;19.270;2023-12-22T01:30:41;96537.56;;;4.63;100.00
71059;BME280;70265;47.576;19.270;2023-12-22T01:31:44;96538.50;;;4.71;100.00
71059;BME280;70265;47.576;19.270;2023-12-22T01:32:45;96540.47;;;4.69;100.00
71059;BME280;70265;47.576;19.270;2023-12-22T01:33:49;96541.75;;;4.73;100.00
71059;BME280;70265;47.576;19.270;2023-12-22T01:34:50;96540.94;;;4.72;100.00
71059;BME280;70265;47.576;19.270;2023-12-22T01:35:54;96540.69;;;4.82;100.00
71059;BME280;70265;47.576;19.270;2023-12-22T01:36:55;96538.59;;;4.77;100.00
71059;BME280;70265;47.576;19.270;2023-12-22T01:37:59;96535.03;;;4.78;100.00
71059;BME280;70265;47.576;19.270;2023-12-22T01:39:03;96541.19;;;4.77;100.00
71059;BME280;70265;47.576;19.270;2023-12-22T01:40:10;96543.00;;;4.77;100.00
71059;BME280;70265;47.576;19.270;2023-12-22T01:41:11;96537.78;;;4.77;100.00
71059;BME280;70265;47.576;19.270;2023-12-22T01:42:14;96535.19;;;4.77;100.00
71059;BME280;70265;47.576;19.270;2023-12-22T01:43:15;96531.16;;;4.74;100.00
71059;BME280;70265;47.576;19.270;2023-12-22T01:44:22;96518.28;;;4.81;100.00
71059;BME280;70265;47.576;19.270;2023-12-22T01:45:23;96509.88;;;4.79;100.00
71059;BME280;70265;47.576;19.270;2023-12-22T01:46:30;96521.44;;;4.76;100.00
71059;BME280;70265;47.576;19.270;2023-12-22T01:47:32;96514.63;;;4.75;100.00
71059;BME280;70265;47.576;19.270;2023-12-22T01:48:34;96508.25;;;4.78;100.00
71059;BME280;70265;47.576;19.270;2023-12-22T01:49:39;96508.00;;;4.73;100.00
71059;BME280;70265;47.576;19.270;2023-12-22T01:50:40;96518.19;;;4.74;100.00
71059;BME280;70265;47.576;19.270;2023-12-22T01:51:46;96521.59;;;4.75;100.00
71059;BME280;70265;47.576;19.270;2023-12-22T01:52:48;96540.38;;;4.77;100.00
71059;BME280;70265;47.576;19.270;2023-12-22T01:53:53;96535.19;;;4.77;100.00
71059;BME280;70265;47.576;19.270;2023-12-22T01:54:57;96525.81;;;4.76;100.00
71059;BME280;70265;47.576;19.270;2023-12-22T01:56:00;96532.13;;;4.73;100.00
71059;BME280;70265;47.576;19.270;2023-12-22T01:57:05;96538.50;;;4.71;100.00
71059;BME280;70265;47.576;19.270;2023-12-22T01:58:07;96535.28;;;4.69;100.00
71059;BME280;70265;47.576;19.270;2023-12-22T01:59:12;96523.25;;;4.68;100.00
71059;BME280;70265;47.576;19.270;2023-12-22T02:00:15;96519.50;;;4.70;100.00
71059;BME280;70265;47.576;19.270;2023-12-22T02:01:20;96508.59;;;4.75;100.00
71059;BME280;70265;47.576;19.270;2023-12-22T02:02:22;96503.41;;;4.75;100.00
71059;BME280;70265;47.576;19.270;2023-12-22T02:03:25;96499.03;;;4.75;100.00
71059;BME280;70265;47.576;19.270;2023-12-22T02:04:27;96494.19;;;4.72;100.00
71059;BME280;70265;47.576;19.270;2023-12-22T02:05:31;96490.94;;;4.70;100.00
71059;BME280;70265;47.576;19.270;2023-12-22T02:06:34;96497.13;;;4.69;100.00
71059;BME280;70265;47.576;19.270;2023-12-22T02:07:41;96484.66;;;4.65;100.00
71059;BME280;70265;47.576;19.270;2023-12-22T02:08:43;96477.50;;;4.67;100.00
71059;BME280;70265;47.576;19.270;2023-12-22T02:09:48;96467.66;;;4.62;100.00
71059;BME280;70265;47.576;19.270;2023-12-22T02:10:51;96461.00;;;4.59;100.00
71059;BME280;70265;47.576;19.270;2023-12-22T02:11:55;96458.31;;;4.53;100.00
71059;BME280;70265;47.576;19.270;2023-12-22T02:12:56;96450.88;;;4.50;100.00
71059;BME280;70265;47.576;19.270;2023-12-22T02:13:59;96441.19;;;4.44;100.00
71059;BME280;70265;47.576;19.270;2023-12-22T02:15:01;96439.91;;;4.40;100.00
71059;BME280;70265;47.576;19.270;2023-12-22T02:16:16;96418.19;;;4.41;100.00
71059;BME280;70265;47.576;19.270;2023-12-22T02:17:23;96427.13;;;4.38;100.00
71059;BME280;70265;47.576;19.270;2023-12-22T02:18:33;96442.22;;;4.35;100.00
71059;BME280;70265;47.576;19.270;2023-12-22T02:19:41;96449.44;;;4.25;100.00
71059;BME280;70265;47.576;19.270;2023-12-22T02:20:45;96454.97;;;4.22;100.00
71059;BME280;70265;47.576;19.270;2023-12-22T02:22:08;96462.22;;;4.26;100.00
71059;BME280;70265;47.576;19.270;2023-12-22T02:23:15;96465.63;;;4.27;100.00
71059;BME280;70265;47.576;19.270;2023-12-22T02:24:16;96444.72;;;4.28;100.00
71059;BME280;70265;47.576;19.270;2023-12-22T02:25:20;96434.97;;;4.30;100.00
71059;BME280;70265;47.576;19.270;2023-12-22T02:26:27;96441.56;;;4.33;100.00
71059;BME280;70265;47.576;19.270;2023-12-22T02:27:37;96440.78;;;4.32;100.00
71059;BME280;70265;47.576;19.270;2023-12-22T02:28:40;96445.34;;;4.30;100.00
71059;BME280;70265;47.576;19.270;2023-12-22T02:29:45;96433.34;;;4.29;100.00
71059;BME280;70265;47.576;19.270;2023-12-22T02:30:54;96424.22;;;4.33;100.00
71059;BME280;70265;47.576;19.270;2023-12-22T02:31:58;96437.19;;;4.33;100.00
71059;BME280;70265;47.576;19.270;2023-12-22T02:33:06;96440.44;;;4.35;100.00
71059;BME280;70265;47.576;19.270;2023-12-22T02:34:11;96447.22;;;4.36;100.00
71059;BME280;70265;47.576;19.270;2023-12-22T02:35:16;96449.19;;;4.34;100.00
71059;BME280;70265;47.576;19.270;2023-12-22T02:36:21;96454.22;;;4.36;100.00
71059;BME280;70265;47.576;19.270;2023-12-22T02:37:23;96453.44;;;4.35;100.00
71059;BME280;70265;47.576;19.270;2023-12-22T02:38:28;96455.81;;;4.37;100.00
71059;BME280;70265;47.576;19.270;2023-12-22T02:39:32;96452.41;;;4.36;100.00
71059;BME280;70265;47.576;19.270;2023-12-22T02:40:34;96459.13;;;4.31;100.00
71059;BME280;70265;47.576;19.270;2023-12-22T02:41:38;96449.19;;;4.34;100.00
71059;BME280;70265;47.576;19.270;2023-12-22T02:42:40;96443.03;;;4.35;100.00
71059;BME280;70265;47.576;19.270;2023-12-22T02:43:41;96458.31;;;4.30;100.00
71059;BME280;70265;47.576;19.270;2023-12-22T02:44:45;96471.59;;;4.35;100.00
71059;BME280;70265;47.576;19.270;2023-12-22T02:45:50;96503.00;;;4.40;100.00
71059;BME280;70265;47.576;19.270;2023-12-22T02:46:53;96501.38;;;4.39;100.00
71059;BME280;70265;47.576;19.270;2023-12-22T02:47:54;96494.41;;;4.40;100.00
71059;BME280;70265;47.576;19.270;2023-12-22T02:48:58;96502.84;;;4.42;100.00
71059;BME280;70265;47.576;19.270;2023-12-22T02:49:59;96501.38;;;4.39;100.00
71059;BME280;70265;47.576;19.270;2023-12-22T02:51:05;96506.91;;;4.36;100.00
71059;BME280;70265;47.576;19.270;2023-12-22T02:52:06;96515.50;;;4.37;100.00
71059;BME280;70265;47.576;19.270;2023-12-22T02:53:10;96517.75;;;4.40;100.00
71059;BME280;70265;47.576;19.270;2023-12-22T02:54:13;96511.09;;;4.45;100.00
71059;BME280;70265;47.576;19.270;2023-12-22T02:55:17;96505.25;;;4.43;100.00
71059;BME280;70265;47.576;19.270;2023-12-22T02:56:18;96502.66;;;4.43;100.00
71059;BME280;70265;47.576;19.270;2023-12-22T02:57:22;96506.22;;;4.42;100.00
71059;BME280;70265;47.576;19.270;2023-12-22T02:58:23;96508.81;;;4.42;100.00
71059;BME280;70265;47.576;19.270;2023-12-22T02:59:27;96515.00;;;4.41;100.00
71059;BME280;70265;47.576;19.270;2023-12-22T03:00:29;96494.06;;;4.43;100.00
71059;BME280;70265;47.576;19.270;2023-12-22T03:01:30;96482.09;;;4.42;100.00
71059;BME280;70265;47.576;19.270;2023-12-22T03:02:33;96479.50;;;4.42;100.00
71059;BME280;70265;47.576;19.270;2023-12-22T03:03:34;96481.53;;;4.46;100.00
71059;BME280;70265;47.576;19.270;2023-12-22T03:04:38;96471.50;;;4.43;100.00
71059;BME280;70265;47.576;19.270;2023-12-22T03:05:39;96471.50;;;4.43;100.00
71059;BME280;70265;47.576;19.270;2023-12-22T03:06:42;96461.78;;;4.45;100.00
71059;BME280;70265;47.576;19.270;2023-12-22T03:07:43;96458.72;;;4.42;100.00
71059;BME280;70265;47.576;19.270;2023-12-22T03:08:47;96464.69;;;4.42;100.00
71059;BME280;70265;47.576;19.270;2023-12-22T03:09:51;96477.28;;;4.53;100.00
71059;BME280;70265;47.576;19.270;2023-12-22T03:10:55;96487.50;;;4.55;100.00
71059;BME280;70265;47.576;19.270;2023-12-22T03:11:56;96486.69;;;4.54;100.00
71059;BME280;70265;47.576;19.270;2023-12-22T03:13:02;96484.38;;;4.59;100.00
71059;BME280;70265;47.576;19.270;2023-12-22T03:14:03;96481.16;;;4.57;100.00
71059;BME280;70265;47.576;19.270;2023-12-22T03:15:08;96489.91;;;4.56;100.00
71059;BME280;70265;47.576;19.270;2023-12-22T03:16:09;96476.31;;;4.54;100.00
71059;BME280;70265;47.576;19.270;2023-12-22T03:17:13;96475.97;;;4.57;100.00
71059;BME280;70265;47.576;19.270;2023-12-22T03:18:15;96478.72;;;4.56;100.00
71059;BME280;70265;47.576;19.270;2023-12-22T03:19:19;96477.75;;;4.57;100.00
71059;BME280;70265;47.576;19.270;2023-12-22T03:20:20;96476.78;;;4.58;100.00
71059;BME280;70265;47.576;19.270;2023-12-22T03:21:23;96476.66;;;4.51;100.00
71059;BME280;70265;47.576;19.270;2023-12-22T03:22:24;96476.13;;;4.56;100.00
71059;BME280;70265;47.576;19.270;2023-12-22T03:23:28;96478.91;;;4.54;100.00
71059;BME280;70265;47.576;19.270;2023-12-22T03:24:29;96483.47;;;4.52;100.00
71059;BME280;70265;47.576;19.270;2023-12-22T03:25:32;96486.56;;;4.48;100.00
71059;BME280;70265;47.576;19.270;2023-12-22T03:26:36;96493.19;;;4.50;100.00
71059;BME280;70265;47.576;19.270;2023-12-22T03:27:37;96493.41;;;4.49;100.00
71059;BME280;70265;47.576;19.270;2023-12-22T03:28:38;96494.38;;;4.48;100.00
71059;BME280;70265;47.576;19.270;2023-12-22T03:29:42;96498.75;;;4.47;100.00
71059;BME280;70265;47.576;19.270;2023-12-22T03:30:43;96513.22;;;4.42;100.00
71059;BME280;70265;47.576;19.270;2023-12-22T03:31:44;96506.22;;;4.42;100.00
71059;BME280;70265;47.576;19.270;2023-12-22T03:32:48;96516.44;;;4.44;100.00
71059;BME280;70265;47.576;19.270;2023-12-22T03:33:49;96509.47;;;4.44;100.00
71059;BME280;70265;47.576;19.270;2023-12-22T03:34:53;96512.69;;;4.46;100.00
71059;BME280;70265;47.576;19.270;2023-12-22T03:35:54;96518.53;;;4.48;100.00
71059;BME280;70265;47.576;19.270;2023-12-22T03:36:55;96508.78;;;4.50;100.00
71059;BME280;70265;47.576;19.270;2023-12-22T03:37:58;96512.81;;;4.53;100.00
71059;BME280;70265;47.576;19.270;2023-12-22T03:38:59;96519.81;;;4.52;100.00
71059;BME280;70265;47.576;19.270;2023-12-22T03:40:06;96540.22;;;4.55;100.00
71059;BME280;70265;47.576;19.270;2023-12-22T03:41:10;96540.38;;;4.54;100.00
71059;BME280;70265;47.576;19.270;2023-12-22T03:42:13;96539.22;;;4.56;100.00
71059;BME280;70265;47.576;19.270;2023-12-22T03:43:14;96536.16;;;4.53;100.00
71059;BME280;70265;47.576;19.270;2023-12-22T03:44:18;96536.50;;;4.50;100.00
71059;BME280;70265;47.576;19.270;2023-12-22T03:45:19;96555.34;;;4.52;100.00
71059;BME280;70265;47.576;19.270;2023-12-22T03:46:23;96552.09;;;4.50;100.00
71059;BME280;70265;47.576;19.270;2023-12-22T03:47:24;96548.22;;;4.46;100.00
71059;BME280;70265;47.576;19.270;2023-12-22T03:48:27;96526.00;;;4.43;100.00
71059;BME280;70265;47.576;19.270;2023-12-22T03:49:28;96522.78;;;4.41;100.00
71059;BME280;70265;47.576;19.270;2023-12-22T03:50:32;96536.97;;;4.31;100.00
71059;BME280;70265;47.576;19.270;2023-12-22T03:51:33;96518.34;;;4.27;100.00
71059;BME280;70265;47.576;19.270;2023-12-22T03:52:38;96524.97;;;4.30;100.00
71059;BME280;70265;47.576;19.270;2023-12-22T03:53:40;96522.59;;;4.20;100.00
71059;BME280;70265;47.576;19.270;2023-12-22T03:54:43;96517.41;;;4.20;100.00
71059;BME280;70265;47.576;19.270;2023-12-22T03:55:44;96518.53;;;4.18;100.00
71059;BME280;70265;47.576;19.270;2023-12-22T03:56:50;96530.56;;;4.10;100.00
71059;BME280;70265;47.576;19.270;2023-12-22T03:57:51;96525.19;;;4.12;100.00
71059;BME280;70265;47.576;19.270;2023-12-22T03:58:55;96532.00;;;4.21;100.00
71059;BME280;70265;47.576;19.270;2023-12-22T03:59:56;96527.81;;;4.12;100.00
71059;BME280;70265;47.576;19.270;2023-12-22T04:01:00;96533.31;;;4.09;100.00
71059;BME280;70265;47.576;19.270;2023-12-22T04:02:01;96528.81;;;4.03;100.00
71059;BME280;70265;47.576;19.270;2023-12-22T04:03:04;96535.91;;;4.09;100.00
71059;BME280;70265;47.576;19.270;2023-12-22T04:04:05;96534.31;;;4.08;100.00
71059;BME280;70265;47.576;19.270;2023-12-22T04:05:11;96537.56;;;4.02;100.00
71059;BME280;70265;47.576;19.270;2023-12-22T04:06:12;96530.31;;;3.97;100.00
71059;BME280;70265;47.576;19.270;2023-12-22T04:07:16;96534.03;;;3.95;100.00
71059;BME280;70265;47.576;19.270;2023-12-22T04:08:17;96536.00;;;3.93;100.00
71059;BME280;70265;47.576;19.270;2023-12-22T04:09:21;96543.63;;;3.86;100.00
71059;BME280;70265;47.576;19.270;2023-12-22T04:10:22;96536.34;;;3.90;100.00
71059;BME280;70265;47.576;19.270;2023-12-22T04:11:25;96543.16;;;3.91;100.00
71059;BME280;70265;47.576;19.270;2023-12-22T04:12:32;96540.09;;;3.87;100.00
71059;BME280;70265;47.576;19.270;2023-12-22T04:13:33;96531.84;;;3.76;100.00
71059;BME280;70265;47.576;19.270;2023-12-22T04:14:37;96538.47;;;3.78;100.00
71059;BME280;70265;47.576;19.270;2023-12-22T04:15:38;96544.81;;;3.76;100.00
71059;BME280;70265;47.576;19.270;2023-12-22T04:16:41;96540.72;;;3.81;100.00
71059;BME280;70265;47.576;19.270;2023-12-22T04:17:42;96543.31;;;3.81;100.00
71059;BME280;70265;47.576;19.270;2023-12-22T04:18:46;96540.25;;;3.86;100.00
71059;BME280;70265;47.576;19.270;2023-12-22T04:19:47;96549.78;;;3.85;100.00
71059;BME280;70265;47.576;19.270;2023-12-22T04:20:51;96550.31;;;3.81;100.00
71059;BME280;70265;47.576;19.270;2023-12-22T04:21:54;96554.16;;;3.93;100.00
71059;BME280;70265;47.576;19.270;2023-12-22T04:22:57;96552.72;;;3.90;100.00
71059;BME280;70265;47.576;19.270;2023-12-22T04:23:58;96552.53;;;3.92;100.00
71059;BME280;70265;47.576;19.270;2023-12-22T04:25:05;96544.38;;;4.03;100.00
71059;BME280;70265;47.576;19.270;2023-12-22T04:26:06;96556.31;;;4.20;100.00
71059;BME280;70265;47.576;19.270;2023-12-22T04:27:10;96561.53;;;4.12;100.00
71059;BME280;70265;47.576;19.270;2023-12-22T04:28:13;96560.25;;;4.08;100.00
71059;BME280;70265;47.576;19.270;2023-12-22T04:29:17;96574.00;;;4.08;100.00
71059;BME280;70265;47.576;19.270;2023-12-22T04:30:18;96584.72;;;4.05;100.00
71059;BME280;70265;47.576;19.270;2023-12-22T04:31:22;96585.53;;;4.06;100.00
71059;BME280;70265;47.576;19.270;2023-12-22T04:32:23;96586.50;;;4.13;100.00
71059;BME280;70265;47.576;19.270;2023-12-22T04:33:24;96560.28;;;4.00;100.00
71059;BME280;70265;47.576;19.270;2023-12-22T04:34:27;96596.81;;;3.82;100.00
71059;BME280;70265;47.576;19.270;2023-12-22T04:35:28;96602.38;;;3.63;100.00
71059;BME280;70265;47.576;19.270;2023-12-22T04:36:32;96602.53;;;3.53;100.00
71059;BME280;70265;47.576;19.270;2023-12-22T04:37:36;96589.88;;;3.50;100.00
71059;BME280;70265;47.576;19.270;2023-12-22T04:38:37;96609.19;;;3.40;100.00
71059;BME280;70265;47.576;19.270;2023-12-22T04:39:41;96597.84;;;3.41;100.00
71059;BME280;70265;47.576;19.270;2023-12-22T04:40:42;96619.56;;;3.40;100.00
71059;BME280;70265;47.576;19.270;2023-12-22T04:41:46;96621.50;;;3.38;100.00
71059;BME280;70265;47.576;19.270;2023-12-22T04:42:47;96622.16;;;3.32;100.00
71059;BME280;70265;47.576;19.270;2023-12-22T04:43:50;96621.16;;;3.25;100.00
71059;BME280;70265;47.576;19.270;2023-12-22T04:44:54;96606.28;;;3.19;100.00
71059;BME280;70265;47.576;19.270;2023-12-22T04:45:55;96612.75;;;3.23;100.00
71059;BME280;70265;47.576;19.270;2023-12-22T04:46:58;96611.78;;;3.24;100.00
71059;BME280;70265;47.576;19.270;2023-12-22T04:47:59;96606.78;;;3.22;100.00
71059;BME280;70265;47.576;19.270;2023-12-22T04:49:03;96605.13;;;3.21;100.00
71059;BME280;70265;47.576;19.270;2023-12-22T04:50:05;96603.38;;;3.22;100.00
71059;BME280;70265;47.576;19.270;2023-12-22T04:51:08;96607.44;;;3.16;100.00
71059;BME280;70265;47.576;19.270;2023-12-22T04:52:10;96599.31;;;3.11;100.00
71059;BME280;70265;47.576;19.270;2023-12-22T04:53:13;96607.09;;;3.11;100.00
71059;BME280;70265;47.576;19.270;2023-12-22T04:54:14;96604.19;;;3.06;100.00
71059;BME280;70265;47.576;19.270;2023-12-22T04:55:15;96609.03;;;3.01;100.00
71059;BME280;70265;47.576;19.270;2023-12-22T04:56:19;96602.22;;;3.00;100.00
71059;BME280;70265;47.576;19.270;2023-12-22T04:57:20;96607.06;;;3.03;100.00
71059;BME280;70265;47.576;19.270;2023-12-22T04:58:24;96598.66;;;3.01;100.00
71059;BME280;70265;47.576;19.270;2023-12-22T04:59:28;96592.34;;;3.03;100.00
71059;BME280;70265;47.576;19.270;2023-12-22T05:00:31;96597.69;;;2.94;100.00
71059;BME280;70265;47.576;19.270;2023-12-22T05:01:32;96598.81;;;2.91;100.00
71059;BME280;70265;47.576;19.270;2023-12-22T05:02:36;96602.38;;;2.98;100.00
71059;BME280;70265;47.576;19.270;2023-12-22T05:03:37;96597.69;;;2.94;100.00
71059;BME280;70265;47.576;19.270;2023-12-22T05:04:38;96596.38;;;2.90;100.00
71059;BME280;70265;47.576;19.270;2023-12-22T05:05:41;96601.88;;;2.87;100.00
71059;BME280;70265;47.576;19.270;2023-12-22T05:06:42;96607.88;;;2.87;100.00
71059;BME280;70265;47.576;19.270;2023-12-22T05:07:46;96606.91;;;2.88;100.00
71059;BME280;70265;47.576;19.270;2023-12-22T05:08:47;96606.41;;;2.85;100.00
71059;BME280;70265;47.576;19.270;2023-12-22T05:09:50;96614.84;;;2.79;100.00
71059;BME280;70265;47.576;19.270;2023-12-22T05:10:53;96618.06;;;2.81;100.00
71059;BME280;70265;47.576;19.270;2023-12-22T05:11:54;96614.50;;;2.82;100.00
71059;BME280;70265;47.576;19.270;2023-12-22T05:12:57;96616.44;;;2.80;100.00
71059;BME280;70265;47.576;19.270;2023-12-22T05:14:00;96615.00;;;2.93;100.00
71059;BME280;70265;47.576;19.270;2023-12-22T05:15:08;96603.50;;;2.88;100.00
71059;BME280;70265;47.576;19.270;2023-12-22T05:16:09;96613.88;;;2.96;100.00
71059;BME280;70265;47.576;19.270;2023-12-22T05:17:13;96607.72;;;2.97;100.00
71059;BME280;70265;47.576;19.270;2023-12-22T05:18:14;96614.19;;;3.01;100.00
71059;BME280;70265;47.576;19.270;2023-12-22T05:19:17;96613.06;;;2.95;100.00
71059;BME280;70265;47.576;19.270;2023-12-22T05:20:18;96623.09;;;2.90;100.00
71059;BME280;70265;47.576;19.270;2023-12-22T05:21:20;96610.00;;;2.92;100.00
71059;BME280;70265;47.576;19.270;2023-12-22T05:22:23;96613.88;;;2.88;100.00
71059;BME280;70265;47.576;19.270;2023-12-22T05:23:25;96611.09;;;2.89;100.00
71059;BME280;70265;47.576;19.270;2023-12-22T05:24:28;96616.44;;;2.88;100.00
71059;BME280;70265;47.576;19.270;2023-12-22T05:25:29;96618.06;;;2.81;100.00
71059;BME280;70265;47.576;19.270;2023-12-22T05:26:30;96622.44;;;2.88;100.00
71059;BME280;70265;47.576;19.270;2023-12-22T05:27:34;96616.44;;;2.88;100.00
71059;BME280;70265;47.576;19.270;2023-12-22T05:28:35;96621.78;;;2.86;100.00
71059;BME280;70265;47.576;19.270;2023-12-22T05:29:39;96619.69;;;2.82;100.00